Terminal Aerodrome Forecast
Issued by NWS

Home | Current Version | Previous Version | Text Only | Print | Product List | Glossary On
Versions: 1 2 3 4 5 6 7 8 9 10 11 12 13 14 15
000
FTUS46 KMTR 121700
TAFSNS
TAF
KSNS 121722Z 1218/1318 27008KT P6SM FEW020
     FM122100 28014KT P6SM SKC
     FM130700 28012KT P6SM OVC007
     FM131500 VRB03KT 4SM BR OVC004=

USA.gov is the U.S. government's official web portal to all federal, state and local government web resources and services.